Ottine, Texas
Current Conditions -  °F | °C
As of 12:15 AM on Tuesday 21 Oct 2014 (Local Time) from KT20 Reporting Station
Clear Clear  
Wind Chill: 69°   Ceiling: Unl
Heat Index: 69°   Visibility: 10mi
Dew Point: 61°   Wind: 3mph
Humidity: 76%   Direction: 60°ENE
Pressure: 30.02"   Gusts: NA
Location:  29.6°N, 97.58°W
Report Text: KT20 210515Z AUTO 06003KT 10SM CLR 21/16 A3002 RMK AO2 T02050162
Loading
Personal Weather Stations






























Interactive Weather Map
Tropical Storm Tracking
New forecast layout! Learn more

10-Day Weather Forecast

Advertisements
Track Severe Weather on mobile